Time;durP1;ratioP1;P1;durP2;ratioP2;P2;SDS_P1;SDS_P2;PMS_P1;PMS_P2;Temp;Humidity;BMP_temperature;BMP_pressure;BME280_temperature;BME280_humidity;BME280_pressure;Samples;Min_cycle;Max_cycle;Signal;HPM_P1;HPM_P2
2022/12/19 00:00:47;;;;;;;27.02;13.02;;;0.40;99.90;;;;;;4204467;28;20037;-86
2022/12/19 00:02:47;;;;;;;26.52;12.23;;;0.60;99.90;;;;;;4204169;28;20082;-93
2022/12/19 00:04:50;;;;;;;28.95;12.07;;;0.60;99.90;;;;;;4185148;28;20049;-86
2022/12/19 00:06:52;;;;;;;29.63;12.30;;;0.00;99.90;;;;;;4184359;28;20114;-88
2022/12/19 00:08:57;;;;;;;29.70;11.77;;;0.50;99.90;;;;;;4184321;28;20051;-88
2022/12/19 00:11:00;;;;;;;30.15;11.88;;;2.20;99.90;;;;;;4202012;28;20100;-88
2022/12/19 00:13:03;;;;;;;29.80;12.13;;;1.80;99.90;;;;;;4185010;28;20129;-87
2022/12/19 00:15:05;;;;;;;30.05;12.23;;;1.80;99.90;;;;;;4201949;28;20404;-88
2022/12/19 00:17:06;;;;;;;30.50;12.35;;;0.70;99.90;;;;;;4202605;28;20040;-87
2022/12/19 00:19:09;;;;;;;35.55;12.73;;;2.40;99.90;;;;;;4185583;28;20045;-87
2022/12/19 00:21:17;;;;;;;25.77;9.57;;;0.80;99.90;;;;;;4185464;28;20055;-88
2022/12/19 00:23:18;;;;;;;33.05;12.93;;;0.60;99.90;;;;;;4185506;28;20091;-88
2022/12/19 00:25:21;;;;;;;27.00;13.00;;;0.60;99.90;;;;;;4185664;28;20497;-88
2022/12/19 00:27:23;;;;;;;31.40;12.80;;;-0.90;99.90;;;;;;4201291;28;20444;-88
2022/12/19 00:29:29;;;;;;;31.52;12.05;;;1.70;99.90;;;;;;4202510;28;20070;-88
2022/12/19 00:31:33;;;;;;;27.33;11.70;;;0.70;99.90;;;;;;4184674;28;20048;-88
2022/12/19 00:33:35;;;;;;;30.23;13.50;;;1.10;99.90;;;;;;4202082;28;20048;-88
2022/12/19 00:35:37;;;;;;;36.08;12.70;;;0.90;99.90;;;;;;4209467;28;20468;-88
2022/12/19 00:37:41;;;;;;;31.27;11.73;;;1.70;99.90;;;;;;4201950;28;20052;-87
2022/12/19 00:39:42;;;;;;;31.00;12.98;;;0.90;99.90;;;;;;4185746;28;20055;-88
2022/12/19 00:41:44;;;;;;;35.15;14.27;;;2.40;99.90;;;;;;4201677;28;20049;-88
2022/12/19 00:43:51;;;;;;;31.33;13.07;;;0.70;99.90;;;;;;4184638;28;20049;-87
2022/12/19 00:45:56;;;;;;;32.60;14.63;;;0.90;99.90;;;;;;4202120;28;20528;-88
2022/12/19 00:48:01;;;;;;;31.08;13.20;;;2.00;99.90;;;;;;4203208;28;20056;-89
2022/12/19 00:50:03;;;;;;;33.50;12.80;;;0.70;99.90;;;;;;4201841;28;20131;-88
2022/12/19 00:52:05;;;;;;;34.30;13.43;;;0.80;99.90;;;;;;4184971;28;20131;-88
2022/12/19 00:54:14;;;;;;;29.70;13.18;;;0.80;99.90;;;;;;4213981;28;20044;-89
2022/12/19 00:56:18;;;;;;;33.58;13.82;;;0.90;99.90;;;;;;4220177;28;20040;-88
2022/12/19 00:58:19;;;;;;;32.35;13.35;;;0.80;99.90;;;;;;4218207;28;20049;-87
2022/12/19 01:00:21;;;;;;;28.40;13.38;;;0.90;99.90;;;;;;4200495;28;20048;-88
2022/12/19 01:02:32;;;;;;;28.85;12.55;;;0.90;99.90;;;;;;4201108;28;20048;-87
2022/12/19 01:04:34;;;;;;;31.13;13.10;;;0.80;99.90;;;;;;4201250;28;20078;-88
2022/12/19 01:06:35;;;;;;;31.77;13.20;;;0.90;99.90;;;;;;4218662;28;20048;-88
2022/12/19 01:08:42;;;;;;;27.77;12.48;;;2.20;99.90;;;;;;4200702;28;20044;-88
2022/12/19 01:10:48;;;;;;;31.83;13.02;;;0.80;99.90;;;;;;4217650;28;20040;-87
2022/12/19 01:12:50;;;;;;;29.27;12.88;;;0.50;99.90;;;;;;4219520;28;20075;-89
2022/12/19 01:14:55;;;;;;;30.25;13.05;;;2.40;99.90;;;;;;4217404;28;20056;-88
2022/12/19 01:16:57;;;;;;;29.83;12.93;;;0.90;99.90;;;;;;4218921;28;20042;-87
2022/12/19 01:18:59;;;;;;;32.42;13.45;;;0.90;99.90;;;;;;4202204;28;20506;-89
2022/12/19 01:21:05;;;;;;;33.10;14.20;;;0.90;99.90;;;;;;4217984;28;20048;-88
2022/12/19 01:23:13;;;;;;;29.50;13.20;;;0.80;99.90;;;;;;4201519;28;20053;-89
2022/12/19 01:25:15;;;;;;;34.17;13.18;;;0.90;99.90;;;;;;4200261;28;20048;-88
2022/12/19 01:27:16;;;;;;;27.48;12.57;;;0.60;99.90;;;;;;4217602;28;20048;-87
2022/12/19 01:29:18;;;;;;;32.10;14.20;;;1.10;99.90;;;;;;4201530;28;20075;-86
2022/12/19 01:31:21;;;;;;;37.92;11.95;;;0.90;99.90;;;;;;4217808;28;20128;-87
2022/12/19 01:33:23;;;;;;;27.98;13.35;;;2.30;99.90;;;;;;4201714;28;20500;-87
2022/12/19 01:35:25;;;;;;;33.40;12.77;;;1.00;99.90;;;;;;4219323;28;20044;-88
2022/12/19 01:37:28;;;;;;;29.98;12.15;;;0.00;99.90;;;;;;4201381;28;20051;-88
2022/12/19 01:39:29;;;;;;;25.77;11.48;;;1.20;99.90;;;;;;4200545;28;20128;-88
2022/12/19 01:41:30;;;;;;;29.90;13.02;;;1.20;99.90;;;;;;4194055;28;20033;-89
2022/12/19 01:43:58;;;;;;;35.75;13.48;;;1.20;99.90;;;;;;4202082;28;20108;-89
2022/12/19 01:46:04;;;;;;;30.93;12.07;;;0.50;99.90;;;;;;4201716;28;20193;-89
2022/12/19 01:48:24;;;;;;;32.22;13.07;;;1.30;99.90;;;;;;4201505;28;20108;-89
2022/12/19 01:50:35;;;;;;;29.30;11.95;;;1.20;99.90;;;;;;4186064;28;20429;-89
2022/12/19 01:52:37;;;;;;;30.27;11.95;;;2.70;99.90;;;;;;4186442;28;20091;-88
2022/12/19 01:54:40;;;;;;;27.23;11.45;;;1.30;99.90;;;;;;4186458;28;20066;-88
2022/12/19 01:56:46;;;;;;;30.63;12.52;;;1.30;99.90;;;;;;4203397;28;20116;-87
2022/12/19 01:58:51;;;;;;;31.80;12.30;;;1.50;99.90;;;;;;4215946;28;20047;-88
2022/12/19 02:00:54;;;;;;;28.15;11.63;;;1.30;99.90;;;;;;4222447;28;20074;-88
2022/12/19 02:03:27;;;;;;;30.00;11.73;;;1.50;99.90;;;;;;4205913;28;20075;-88
2022/12/19 02:05:29;;;;;;;28.95;12.27;;;1.30;99.90;;;;;;4224163;28;20101;-88
2022/12/19 02:07:32;;;;;;;35.80;13.63;;;1.50;99.90;;;;;;4204811;28;20046;-89
2022/12/19 02:09:35;;;;;;;34.95;12.95;;;1.40;99.90;;;;;;4222224;28;20119;-88
2022/12/19 02:11:38;;;;;;;29.38;14.27;;;2.20;99.90;;;;;;4205655;28;20086;-89
2022/12/19 02:13:43;;;;;;;32.58;12.90;;;1.40;99.90;;;;;;4215289;28;20048;-88
2022/12/19 02:16:12;;;;;;;25.33;10.23;;;2.20;99.90;;;;;;4201649;28;20044;-89
2022/12/19 02:18:20;;;;;;;32.03;12.98;;;0.00;99.90;;;;;;4186249;28;20053;-88
2022/12/19 02:20:57;;;;;;;28.35;12.55;;;1.70;99.90;;;;;;4188773;28;20036;-87
2022/12/19 02:23:26;;;;;;;30.15;12.70;;;1.60;99.90;;;;;;4207047;28;20104;-88
2022/12/19 02:26:04;;;;;;;39.63;13.93;;;1.50;99.90;;;;;;4206853;28;20056;-88
2022/12/19 02:28:09;;;;;;;31.67;13.50;;;1.50;99.90;;;;;;4205966;28;20603;-87
2022/12/19 02:30:14;;;;;;;29.48;13.25;;;1.50;99.90;;;;;;4207271;28;20041;-87
2022/12/19 02:32:29;;;;;;;31.35;13.75;;;1.60;99.90;;;;;;4204893;28;20068;-88
2022/12/19 02:34:42;;;;;;;36.63;12.25;;;0.20;99.90;;;;;;4204725;28;20055;-88
2022/12/19 02:37:00;;;;;;;26.05;10.85;;;1.50;99.90;;;;;;4188978;28;20076;-88
2022/12/19 02:39:11;;;;;;;34.95;13.15;;;2.10;99.90;;;;;;4189052;28;20437;-88
2022/12/19 02:41:21;;;;;;;36.85;13.57;;;1.60;99.90;;;;;;4188912;28;20056;-88
2022/12/19 02:43:24;;;;;;;36.85;13.93;;;1.60;99.90;;;;;;4189876;28;20383;-88
2022/12/19 02:45:33;;;;;;;35.15;14.40;;;2.80;99.90;;;;;;4189277;28;20087;-87
2022/12/19 02:47:40;;;;;;;;;;;1.60;99.90;;;;;;4189163;28;20087;-87
2022/12/19 02:49:42;;;;;;;36.90;14.85;;;1.50;99.90;;;;;;4190206;28;20382;-87
2022/12/19 02:51:49;;;;;;;33.33;14.00;;;1.60;99.90;;;;;;4206141;28;20044;-87
2022/12/19 02:53:53;;;;;;;35.97;14.60;;;1.50;99.90;;;;;;4188617;28;20045;-87
2022/12/19 02:56:12;;;;;;;33.90;13.70;;;1.60;99.90;;;;;;4205784;28;20045;-87
2022/12/19 02:58:27;;;;;;;35.50;12.93;;;1.70;99.90;;;;;;4188674;28;20048;-87
2022/12/19 03:00:41;;;;;;;37.97;15.23;;;1.70;99.90;;;;;;4205102;28;20044;-88
2022/12/19 03:02:53;;;;;;;37.25;15.13;;;2.70;99.90;;;;;;4204599;28;20492;-88
2022/12/19 03:05:04;;;;;;;36.85;14.57;;;1.60;99.90;;;;;;4204798;28;20048;-87
2022/12/19 03:07:23;;;;;;;37.78;15.68;;;3.10;99.90;;;;;;4203546;28;20056;-88
2022/12/19 03:09:44;;;;;;;36.95;14.88;;;3.10;99.90;;;;;;4204297;28;20118;-88
2022/12/19 03:11:55;;;;;;;31.70;11.85;;;1.70;99.90;;;;;;4204707;28;20040;-88
2022/12/19 03:14:01;;;;;;;34.05;15.45;;;1.70;99.90;;;;;;4187153;28;20532;-88
2022/12/19 03:16:08;;;;;;;35.10;14.80;;;3.00;99.90;;;;;;4207488;28;20032;-88
2022/12/19 03:18:13;;;;;;;34.05;15.13;;;1.70;99.90;;;;;;4203217;28;20055;-88
2022/12/19 03:20:46;;;;;;;40.65;15.38;;;1.70;99.90;;;;;;4203387;28;20084;-89
2022/12/19 03:22:47;;;;;;;30.05;13.38;;;1.90;99.90;;;;;;4221193;28;20066;-89
2022/12/19 03:24:50;;;;;;;33.95;15.15;;;3.40;99.90;;;;;;4221458;28;20059;-89
2022/12/19 03:27:01;;;;;;;34.80;15.15;;;1.90;99.90;;;;;;4203822;28;20045;-89
2022/12/19 03:29:04;;;;;;;33.83;14.75;;;1.80;99.90;;;;;;4204452;28;20055;-89
2022/12/19 03:31:11;;;;;;;34.08;14.73;;;1.70;99.90;;;;;;4204682;28;20576;-88
2022/12/19 03:33:16;;;;;;;29.80;11.95;;;1.10;99.90;;;;;;4203199;28;20100;-88
2022/12/19 03:35:28;;;;;;;39.78;14.40;;;1.90;99.90;;;;;;4188229;28;20057;-88
2022/12/19 03:37:34;;;;;;;38.95;14.70;;;2.10;99.90;;;;;;4188603;28;20087;-88
2022/12/19 03:39:37;;;;;;;34.80;13.82;;;2.70;99.90;;;;;;4186113;28;20144;-88
2022/12/19 03:44:05;;;;;;;31.23;12.77;;;1.70;99.90;;;;;;4204761;28;20044;-87
2022/12/19 03:46:23;;;;;;;41.78;15.15;;;1.90;99.90;;;;;;4203400;28;20104;-88
2022/12/19 03:48:48;;;;;;;37.35;14.52;;;2.70;99.90;;;;;;4202959;28;20044;-88
2022/12/19 03:51:19;;;;;;;32.70;13.55;;;2.00;99.90;;;;;;4203970;28;20109;-88
2022/12/19 03:53:31;;;;;;;40.55;14.43;;;2.00;99.90;;;;;;4186860;28;20068;-88
2022/12/19 03:55:39;;;;;;;38.70;15.55;;;1.10;99.90;;;;;;4204026;28;20123;-88
2022/12/19 03:57:49;;;;;;;37.28;15.35;;;0.60;99.90;;;;;;4203655;28;20504;-88
2022/12/19 03:59:54;;;;;;;35.20;14.15;;;2.10;99.90;;;;;;4185493;28;20090;-88
2022/12/19 04:01:57;;;;;;;43.75;16.30;;;1.80;99.90;;;;;;4218393;28;20090;-88
2022/12/19 04:04:00;;;;;;;43.42;18.20;;;1.00;99.90;;;;;;4184517;28;20559;-87
2022/12/19 04:06:04;;;;;;;42.65;16.42;;;3.60;99.90;;;;;;4184215;28;20064;-87
2022/12/19 04:08:07;;;;;;;39.25;16.00;;;2.10;99.90;;;;;;4184823;28;20060;-87
2022/12/19 04:10:18;;;;;;;41.65;15.98;;;3.30;99.90;;;;;;4200754;28;20052;-87
2022/12/19 04:12:25;;;;;;;39.97;15.38;;;2.20;99.90;;;;;;4203501;28;20036;-87
2022/12/19 04:14:32;;;;;;;49.05;17.98;;;0.80;99.90;;;;;;4184697;28;20064;-87
2022/12/19 04:16:43;;;;;;;44.83;17.90;;;3.20;99.90;;;;;;4201457;28;20044;-87
2022/12/19 04:18:54;;;;;;;46.03;18.52;;;2.10;99.90;;;;;;4201330;28;20064;-86
2022/12/19 04:21:10;;;;;;;41.67;16.25;;;2.10;99.90;;;;;;4218360;28;20039;-88
2022/12/19 04:23:29;;;;;;;39.60;15.95;;;2.10;99.90;;;;;;4218089;28;20051;-85
2022/12/19 04:25:38;;;;;;;42.20;16.95;;;2.70;99.90;;;;;;4219139;28;20075;-88
2022/12/19 04:27:44;;;;;;;40.60;18.10;;;2.30;99.90;;;;;;4218515;28;20579;-87
2022/12/19 04:29:51;;;;;;;41.35;17.13;;;2.20;99.90;;;;;;4219172;28;20492;-88
2022/12/19 04:31:52;;;;;;;46.78;17.08;;;2.20;99.90;;;;;;4217523;28;20036;-88
2022/12/19 04:33:53;;;;;;;46.70;16.10;;;2.50;99.90;;;;;;4218050;28;20417;-88
2022/12/19 04:35:55;;;;;;;45.28;17.55;;;3.90;99.90;;;;;;4218467;28;20129;-88
2022/12/19 04:37:57;;;;;;;45.03;17.25;;;2.30;99.90;;;;;;4202796;28;20078;-87
2022/12/19 04:39:59;;;;;;;53.03;18.95;;;2.50;99.90;;;;;;4235609;28;20507;-88
2022/12/19 04:42:00;;;;;;;45.60;17.80;;;2.40;99.90;;;;;;4202671;28;20118;-88
2022/12/19 04:44:06;;;;;;;36.97;13.18;;;2.80;99.90;;;;;;4219619;28;20130;-88
2022/12/19 04:46:07;;;;;;;42.85;17.60;;;2.60;99.90;;;;;;4201164;28;20108;-88
2022/12/19 04:48:09;;;;;;;39.95;16.15;;;2.80;99.90;;;;;;4185921;28;20505;-89
2022/12/19 04:50:10;;;;;;;42.67;15.73;;;3.60;99.90;;;;;;4184504;28;20086;-88
2022/12/19 04:52:11;;;;;;;44.38;16.42;;;2.50;99.90;;;;;;4184607;28;20429;-89
2022/12/19 04:54:11;;;;;;;39.63;15.57;;;3.30;99.90;;;;;;4200729;28;20044;-88
2022/12/19 04:56:13;;;;;;;41.08;18.48;;;2.60;99.90;;;;;;4203146;28;20115;-88
2022/12/19 04:58:16;;;;;;;44.83;17.77;;;2.70;99.90;;;;;;4184082;28;20532;-88
2022/12/19 05:00:17;;;;;;;39.88;16.02;;;4.00;99.90;;;;;;4201152;28;20055;-88
2022/12/19 05:02:18;;;;;;;40.78;16.63;;;4.00;99.90;;;;;;4203509;28;20051;-88
2022/12/19 05:04:20;;;;;;;44.50;17.60;;;2.60;99.90;;;;;;4200812;28;20045;-88
2022/12/19 05:06:21;;;;;;;42.75;16.20;;;2.60;99.90;;;;;;4218273;28;20112;-88
2022/12/19 05:08:23;;;;;;;37.42;14.07;;;2.90;99.90;;;;;;4226895;28;20048;-89
2022/12/19 05:10:24;;;;;;;45.85;17.90;;;2.60;99.90;;;;;;4213857;28;20052;-88
2022/12/19 05:12:28;;;;;;;46.95;18.25;;;4.10;99.90;;;;;;4230027;28;20024;-88
2022/12/19 05:14:29;;;;;;;39.78;14.77;;;3.70;99.90;;;;;;4211891;28;20057;-88
2022/12/19 05:16:31;;;;;;;39.33;14.65;;;3.60;99.90;;;;;;4203641;28;20556;-88
2022/12/19 05:18:35;;;;;;;45.03;17.70;;;2.70;99.90;;;;;;4201771;28;20063;-88
2022/12/19 05:20:37;;;;;;;43.95;19.13;;;3.30;99.90;;;;;;4208225;28;20436;-88
2022/12/19 05:22:40;;;;;;;46.45;17.45;;;2.80;99.90;;;;;;4201132;28;20052;-88
2022/12/19 05:24:41;;;;;;;47.30;18.70;;;2.70;99.90;;;;;;4183745;28;20489;-88
2022/12/19 05:26:42;;;;;;;46.92;17.98;;;2.80;99.90;;;;;;4200492;28;20048;-89
2022/12/19 05:28:45;;;;;;;42.90;19.42;;;3.60;99.90;;;;;;4200679;28;20056;-88
2022/12/19 05:30:48;;;;;;;30.75;12.50;;;2.70;99.90;;;;;;4200678;28;20067;-88
2022/12/19 05:32:50;;;;;;;35.83;14.95;;;2.90;99.90;;;;;;4200174;28;20048;-88
2022/12/19 05:34:52;;;;;;;35.92;15.90;;;2.80;99.90;;;;;;4184375;28;20049;-87
2022/12/19 05:36:54;;;;;;;40.92;15.98;;;2.30;99.90;;;;;;4183334;28;20044;-88
2022/12/19 05:38:56;;;;;;;43.58;17.48;;;2.80;99.90;;;;;;4212549;28;20108;-88
2022/12/19 05:40:57;;;;;;;43.83;17.15;;;2.90;99.90;;;;;;4200168;28;20044;-88
2022/12/19 05:42:59;;;;;;;41.15;17.15;;;2.80;99.90;;;;;;4216366;28;20174;-88
2022/12/19 05:44:59;;;;;;;38.03;15.02;;;3.00;99.90;;;;;;4201138;28;20048;-88
2022/12/19 05:47:00;;;;;;;40.47;15.68;;;2.90;99.90;;;;;;4199885;28;20131;-88
2022/12/19 05:49:02;;;;;;;35.53;14.05;;;2.90;99.90;;;;;;4216793;28;20384;-88
2022/12/19 05:51:04;;;;;;;40.55;16.13;;;2.90;99.90;;;;;;4198995;28;20427;-88
2022/12/19 05:53:06;;;;;;;39.63;16.48;;;3.00;99.90;;;;;;4215591;28;20036;-86
2022/12/19 05:55:09;;;;;;;49.15;17.75;;;4.50;99.90;;;;;;4197585;28;20048;-88
2022/12/19 05:57:10;;;;;;;34.17;13.18;;;4.50;99.90;;;;;;4202280;28;20056;-87
2022/12/19 05:59:11;;;;;;;47.50;15.93;;;3.20;99.90;;;;;;4204311;28;20052;-86
2022/12/19 06:01:21;;;;;;;43.50;16.38;;;3.10;99.90;;;;;;4220273;28;20044;-87
2022/12/19 06:03:24;;;;;;;39.97;16.55;;;3.10;99.90;;;;;;4220981;28;20047;-86
2022/12/19 06:05:27;;;;;;;42.00;17.42;;;3.10;99.90;;;;;;4203020;28;20104;-86
2022/12/19 06:07:29;;;;;;;38.75;15.32;;;3.00;99.90;;;;;;4203182;28;20048;-87
2022/12/19 06:09:31;;;;;;;40.05;14.38;;;3.70;99.90;;;;;;4208179;28;20436;-86
2022/12/19 06:11:32;;;;;;;35.58;15.73;;;3.10;99.90;;;;;;4221693;28;20040;-87
2022/12/19 06:13:34;;;;;;;37.08;13.95;;;3.90;99.90;;;;;;4220473;28;20062;-85
2022/12/19 06:15:37;;;;;;;30.38;13.18;;;2.00;99.90;;;;;;4203271;28;20473;-87
2022/12/19 06:17:38;;;;;;;35.00;14.55;;;2.10;99.90;;;;;;4220871;28;20039;-86
2022/12/19 06:19:46;;;;;;;34.55;13.90;;;3.30;99.90;;;;;;4209911;28;20543;-87
2022/12/19 06:21:47;;;;;;;31.27;13.63;;;4.30;99.90;;;;;;4203284;28;20043;-86
2022/12/19 06:23:49;;;;;;;28.95;12.25;;;4.30;99.90;;;;;;4202745;28;20072;-87
2022/12/19 06:25:51;;;;;;;32.40;12.90;;;3.30;99.90;;;;;;4201485;28;20052;-87
2022/12/19 06:27:54;;;;;;;25.85;10.85;;;3.20;99.90;;;;;;4185034;28;20045;-87
2022/12/19 06:29:54;;;;;;;24.13;11.32;;;3.40;99.90;;;;;;4201147;28;20084;-87
2022/12/19 06:31:55;;;;;;;24.13;11.07;;;3.40;99.90;;;;;;4202465;28;20068;-87
2022/12/19 06:33:56;;;;;;;26.48;11.73;;;3.50;99.90;;;;;;4201916;28;20032;-87
2022/12/19 06:36:10;;;;;;;27.02;11.02;;;3.50;99.90;;;;;;4202999;28;20102;-87
2022/12/19 06:38:12;;;;;;;28.58;12.13;;;2.80;99.90;;;;;;4185184;28;20076;-87
2022/12/19 06:42:21;;;;;;;29.73;12.60;;;3.50;99.90;;;;;;4201086;28;20128;-87
2022/12/19 06:42:35;;;;;;;29.90;11.48;;;3.60;99.90;;;;;;4202066;28;20052;-88
2022/12/19 06:44:36;;;;;;;24.70;10.95;;;3.50;99.90;;;;;;4201000;28;20044;-87
2022/12/19 06:46:38;;;;;;;21.65;10.13;;;3.60;99.90;;;;;;4209820;28;20047;-87
2022/12/19 06:48:40;;;;;;;26.77;11.57;;;3.60;99.90;;;;;;4218361;28;20040;-87
2022/12/19 06:50:40;;;;;;;31.30;12.07;;;4.00;99.90;;;;;;4218590;28;20123;-90
2022/12/19 06:52:41;;;;;;;25.17;11.52;;;4.20;99.90;;;;;;4200418;28;20424;-88
2022/12/19 06:54:43;;;;;;;27.77;10.77;;;4.70;99.90;;;;;;4199584;28;20047;-86
2022/12/19 06:56:44;;;;;;;23.73;11.52;;;4.50;99.90;;;;;;4217144;28;20054;-86
2022/12/19 06:58:45;;;;;;;23.27;9.93;;;3.70;99.90;;;;;;4200777;28;20084;-87
2022/12/19 07:00:45;;;;;;;26.33;10.30;;;4.10;99.90;;;;;;4216910;28;20408;-85
2022/12/19 07:02:50;;;;;;;21.45;9.23;;;3.90;99.90;;;;;;4202676;28;20164;-85
2022/12/19 07:04:58;;;;;;;19.42;8.77;;;3.90;99.90;;;;;;4204424;28;20063;-86
2022/12/19 07:07:00;;;;;;;23.45;9.65;;;4.60;99.90;;;;;;4203988;28;20464;-86
2022/12/19 07:09:02;;;;;;;19.58;8.75;;;5.20;99.90;;;;;;4184592;28;20493;-86
2022/12/19 07:11:03;;;;;;;18.38;9.05;;;4.00;99.90;;;;;;4201954;28;20071;-86
2022/12/19 07:13:04;;;;;;;17.48;7.63;;;2.90;99.90;;;;;;4203147;28;20092;-86
2022/12/19 07:15:05;;;;;;;18.88;8.95;;;4.00;99.90;;;;;;4200545;28;20075;-86
2022/12/19 07:17:07;;;;;;;20.05;8.40;;;4.10;99.90;;;;;;4199009;28;20098;-85
2022/12/19 07:19:10;;;;;;;22.25;9.07;;;4.20;99.90;;;;;;4199693;28;20052;-86
2022/12/19 07:21:11;;;;;;;18.13;8.20;;;4.40;99.90;;;;;;4182083;28;20135;-86
2022/12/19 07:23:16;;;;;;;16.80;7.43;;;5.70;99.90;;;;;;4182432;28;20505;-87
2022/12/19 07:25:18;;;;;;;16.85;8.10;;;5.00;99.90;;;;;;4190940;28;20581;-85
2022/12/19 07:27:23;;;;;;;12.50;6.45;;;4.20;99.90;;;;;;4201170;28;20181;-85
2022/12/19 07:29:25;;;;;;;21.17;8.55;;;4.20;99.90;;;;;;4221268;28;20126;-86
2022/12/19 07:31:26;;;;;;;18.42;7.32;;;4.30;99.90;;;;;;4199953;28;20583;-86
2022/12/19 07:33:27;;;;;;;18.15;7.60;;;5.50;99.90;;;;;;4217413;28;20040;-86
2022/12/19 07:35:28;;;;;;;15.40;7.55;;;5.30;99.90;;;;;;4216478;28;20400;-87
2022/12/19 07:37:30;;;;;;;14.60;5.43;;;4.80;99.90;;;;;;4216743;28;20044;-87
2022/12/19 07:39:32;;;;;;;16.20;7.63;;;5.60;99.90;;;;;;4200095;28;20055;-86
2022/12/19 07:41:36;;;;;;;13.13;6.55;;;5.20;99.90;;;;;;4218427;28;20114;-87
2022/12/19 07:43:36;;;;;;;17.13;7.80;;;4.40;99.90;;;;;;4215623;28;20052;-86
2022/12/19 07:45:37;;;;;;;15.05;6.90;;;4.40;99.90;;;;;;4216939;28;20036;-86
2022/12/19 07:47:39;;;;;;;16.50;7.13;;;5.80;99.90;;;;;;4215450;28;20035;-88
2022/12/19 07:49:40;;;;;;;15.73;6.68;;;4.40;99.90;;;;;;4216403;28;20040;-88
2022/12/19 07:51:41;;;;;;;13.35;5.88;;;4.40;99.90;;;;;;4217444;28;20097;-88
2022/12/19 07:53:41;;;;;;;11.00;5.30;;;4.90;99.90;;;;;;4216954;28;20055;-88
2022/12/19 07:55:42;;;;;;;15.43;7.03;;;4.50;99.90;;;;;;4202852;28;20045;-88
2022/12/19 07:57:44;;;;;;;15.80;6.95;;;4.30;99.90;;;;;;4199331;28;20127;-88
2022/12/19 07:59:45;;;;;;;11.98;6.82;;;4.60;99.90;;;;;;4200093;28;20037;-88
2022/12/19 08:01:46;;;;;;;17.88;7.53;;;5.50;99.90;;;;;;4213458;28;20102;-88
2022/12/19 08:03:48;;;;;;;14.27;6.82;;;5.60;99.90;;;;;;4199002;28;20392;-88
2022/12/19 08:05:49;;;;;;;16.40;6.97;;;4.60;99.90;;;;;;4216009;28;20507;-88
2022/12/19 08:07:49;;;;;;;13.75;6.32;;;4.50;99.90;;;;;;4216810;28;20127;-88
2022/12/19 08:09:50;;;;;;;11.43;5.25;;;4.50;99.90;;;;;;4199465;28;20485;-88
2022/12/19 08:11:53;;;;;;;18.70;7.82;;;4.60;99.90;;;;;;4216185;28;20052;-88
2022/12/19 08:13:55;;;;;;;14.70;7.20;;;4.60;99.90;;;;;;4213746;28;20106;-88
2022/12/19 08:15:59;;;;;;;16.20;7.90;;;5.20;99.90;;;;;;4200846;28;20076;-88
2022/12/19 08:18:02;;;;;;;17.17;6.60;;;5.20;99.90;;;;;;4214918;28;20048;-88
2022/12/19 08:20:04;;;;;;;9.35;4.95;;;4.60;99.90;;;;;;4198923;28;20122;-88
2022/12/19 08:22:05;;;;;;;15.02;6.22;;;4.70;99.90;;;;;;4215428;28;20044;-88
2022/12/19 08:24:06;;;;;;;14.35;7.03;;;6.30;99.90;;;;;;4199082;28;20489;-89
2022/12/19 08:26:14;;;;;;;15.32;6.90;;;4.70;99.90;;;;;;4198387;28;20036;-87
2022/12/19 08:28:16;;;;;;;13.68;6.25;;;3.80;99.90;;;;;;4216214;28;20072;-87
2022/12/19 08:30:18;;;;;;;15.00;6.35;;;5.40;99.90;;;;;;4214640;28;20044;-88
2022/12/19 08:32:20;;;;;;;11.30;5.57;;;6.00;99.90;;;;;;4192017;28;20056;-87
2022/12/19 08:34:22;;;;;;;16.13;6.80;;;5.40;99.90;;;;;;4200272;28;20467;-86
2022/12/19 08:36:24;;;;;;;12.63;5.63;;;6.30;99.90;;;;;;4200709;28;20128;-87
2022/12/19 08:38:26;;;;;;;12.55;5.72;;;4.80;99.90;;;;;;4211898;28;20040;-86
2022/12/19 08:40:27;;;;;;;9.82;4.57;;;5.20;99.90;;;;;;4211829;28;20090;-86
2022/12/19 08:42:27;;;;;;;13.43;5.85;;;5.60;99.90;;;;;;4198856;28;20051;-87
2022/12/19 08:44:29;;;;;;;14.80;6.70;;;6.30;99.90;;;;;;4198201;28;20040;-87
2022/12/19 08:46:33;;;;;;;13.13;6.32;;;4.90;99.90;;;;;;4200182;28;20390;-86
2022/12/19 08:48:35;;;;;;;12.43;6.30;;;5.00;99.90;;;;;;4182069;28;20110;-86
2022/12/19 08:50:37;;;;;;;11.60;5.85;;;5.40;99.90;;;;;;4199414;28;20045;-86
2022/12/19 08:52:38;;;;;;;11.85;6.28;;;5.80;99.90;;;;;;4199852;28;20044;-86
2022/12/19 08:54:38;;;;;;;13.48;6.13;;;4.90;99.90;;;;;;4197917;28;20067;-87
2022/12/19 08:56:39;;;;;;;10.55;5.43;;;5.00;99.90;;;;;;4201546;28;20048;-87
2022/12/19 08:58:40;;;;;;;13.45;6.40;;;5.00;99.90;;;;;;4215853;28;20048;-87
2022/12/19 09:00:41;;;;;;;11.98;5.93;;;5.10;99.90;;;;;;4216036;28;20063;-87
2022/12/19 09:02:42;;;;;;;14.18;6.95;;;5.10;99.90;;;;;;4215966;28;20134;-86
2022/12/19 09:04:42;;;;;;;12.43;5.85;;;5.40;99.90;;;;;;4215454;28;20127;-86
2022/12/19 09:06:44;;;;;;;14.23;6.97;;;5.30;99.90;;;;;;4198347;28;20063;-86
2022/12/19 09:08:46;;;;;;;12.38;6.75;;;7.00;99.90;;;;;;4213520;28;20044;-86
2022/12/19 09:10:47;;;;;;;13.48;6.13;;;5.40;99.90;;;;;;4197454;28;20190;-86
2022/12/19 09:12:48;;;;;;;12.82;6.40;;;5.40;99.90;;;;;;4207764;28;20489;-87
2022/12/19 09:14:49;;;;;;;12.27;5.47;;;5.30;99.90;;;;;;4182191;28;20045;-87
2022/12/19 09:16:50;;;;;;;13.80;6.85;;;5.60;99.90;;;;;;4181619;28;20049;-87
2022/12/19 09:18:53;;;;;;;11.18;5.70;;;5.30;99.90;;;;;;4199013;28;20045;-86
2022/12/19 09:20:55;;;;;;;14.70;7.60;;;5.50;99.90;;;;;;4198927;28;20078;-86
2022/12/19 09:22:55;;;;;;;13.65;6.93;;;4.50;99.90;;;;;;4181425;28;20037;-87
2022/12/19 09:24:56;;;;;;;13.50;6.18;;;7.00;99.90;;;;;;4215051;28;20051;-87
2022/12/19 09:26:57;;;;;;;13.05;7.25;;;5.60;99.90;;;;;;4198390;28;20151;-86
2022/12/19 09:28:58;;;;;;;15.93;6.60;;;5.90;99.90;;;;;;4182125;28;20131;-86
2022/12/19 09:31:03;;;;;;;12.00;5.40;;;6.10;99.90;;;;;;4198985;28;20051;-86
2022/12/19 09:33:03;;;;;;;12.15;6.63;;;7.40;99.90;;;;;;4199725;28;20048;-86
2022/12/19 09:35:05;;;;;;;14.57;7.57;;;6.20;99.90;;;;;;4199840;28;20055;-86
2022/12/19 09:37:09;;;;;;;15.98;7.55;;;5.90;99.90;;;;;;4200572;28;20075;-86
2022/12/19 09:39:11;;;;;;;12.07;6.50;;;6.30;99.90;;;;;;4199648;28;20052;-86
2022/12/19 09:41:22;;;;;;;13.00;6.82;;;5.70;99.90;;;;;;4182571;28;20053;-86
2022/12/19 09:43:46;;;;;;;13.25;6.80;;;5.70;99.90;;;;;;4213093;28;20968;-87
2022/12/19 09:46:13;;;;;;;14.73;7.00;;;5.90;99.90;;;;;;4214495;28;20052;-86
2022/12/19 09:48:17;;;;;;;16.38;8.55;;;6.00;99.90;;;;;;4214149;28;20059;-86
2022/12/19 09:50:48;;;;;;;16.75;7.68;;;6.00;99.90;;;;;;4197729;28;20059;-87
2022/12/19 09:52:57;;;;;;;14.38;6.50;;;5.90;99.90;;;;;;4214029;28;20067;-87
2022/12/19 09:55:14;;;;;;;14.52;7.50;;;7.40;99.90;;;;;;4214094;28;20052;-86
2022/12/19 09:57:36;;;;;;;13.70;7.30;;;6.30;99.90;;;;;;4197908;28;20056;-87
2022/12/19 09:59:41;;;;;;;14.63;7.35;;;6.00;99.90;;;;;;4208284;28;20535;-86
2022/12/19 10:01:57;;;;;;;13.52;7.13;;;6.30;99.90;;;;;;4213484;28;20079;-86
2022/12/19 10:04:11;;;;;;;13.57;6.93;;;4.50;99.90;;;;;;4196503;28;20052;-87
2022/12/19 10:06:21;;;;;;;15.07;7.95;;;6.70;99.90;;;;;;4214708;28;20040;-87
2022/12/19 10:08:30;;;;;;;13.55;7.47;;;6.20;99.90;;;;;;4214962;28;20052;-85
2022/12/19 10:10:46;;;;;;;16.58;7.30;;;6.40;99.90;;;;;;4213924;28;20123;-85
2022/12/19 10:13:02;;;;;;;16.25;8.00;;;7.00;99.90;;;;;;4198041;28;20048;-85
2022/12/19 10:15:09;;;;;;;15.38;7.65;;;6.40;99.90;;;;;;4210151;28;20057;-88
2022/12/19 10:17:19;;;;;;;14.60;6.53;;;6.50;99.90;;;;;;4197270;28;20048;-86
2022/12/19 10:19:36;;;;;;;22.98;8.20;;;6.70;99.90;;;;;;4199791;28;20401;-86
2022/12/19 10:21:56;;;;;;;14.32;6.45;;;6.70;99.90;;;;;;4200132;28;20055;-86
2022/12/19 10:24:13;;;;;;;13.98;6.70;;;6.40;99.90;;;;;;4197471;28;20045;-86
2022/12/19 10:26:29;;;;;;;14.57;7.63;;;6.70;99.90;;;;;;4198161;28;20404;-86
2022/12/19 10:28:50;;;;;;;15.57;7.50;;;7.10;99.90;;;;;;4181392;28;20048;-86
2022/12/19 10:31:08;;;;;;;18.48;7.75;;;6.20;99.90;;;;;;4198411;28;20040;-86
2022/12/19 10:33:42;;;;;;;14.27;7.63;;;6.70;99.90;;;;;;4197340;28;20036;-86
2022/12/19 10:35:48;;;;;;;16.77;7.00;;;6.70;99.90;;;;;;4214082;28;20593;-86
2022/12/19 10:38:18;;;;;;;16.23;7.80;;;6.80;99.90;;;;;;4204954;28;20044;-86
2022/12/19 10:40:44;;;;;;;13.25;5.90;;;6.80;99.90;;;;;;4205280;28;20047;-86
2022/12/19 10:42:53;;;;;;;15.48;7.25;;;6.80;99.90;;;;;;4204405;28;20178;-86
2022/12/19 10:44:58;;;;;;;16.67;7.38;;;6.90;99.90;;;;;;4210922;28;20152;-86
2022/12/19 10:46:58;;;;;;;14.90;7.45;;;7.10;99.90;;;;;;4200209;28;20057;-86
2022/12/19 10:48:59;;;;;;;18.30;9.63;;;6.90;99.90;;;;;;4200441;28;20052;-86
2022/12/19 10:51:01;;;;;;;14.00;6.28;;;6.90;99.90;;;;;;4203799;28;20044;-85